createdAt,value
2023-01-12T00:01:14.465Z,97790.31
2023-01-12T00:03:47.052Z,97786.13
2023-01-12T00:06:20.680Z,97788.91
2023-01-12T00:08:53.464Z,97787.53
2023-01-12T00:11:26.326Z,97794.34
2023-01-12T00:13:58.995Z,97789.41
2023-01-12T00:16:31.618Z,97785.41
2023-01-12T00:19:18.700Z,97783.19
2023-01-12T00:21:57.133Z,97795.16
2023-01-12T00:24:38.889Z,97793.94
2023-01-12T00:27:17.306Z,97793.28
2023-01-12T00:29:50.197Z,97788.56
2023-01-12T00:32:22.740Z,97783.28
2023-01-12T00:34:55.322Z,97790.28
2023-01-12T00:37:27.834Z,97797.66
2023-01-12T00:40:02.914Z,97790.75
2023-01-12T00:42:35.747Z,97783.50
2023-01-12T00:45:09.635Z,97779.56
2023-01-12T00:47:43.098Z,97765.78
2023-01-12T00:50:17.393Z,97766.13
2023-01-12T00:52:51.722Z,97759.84
2023-01-12T00:55:24.297Z,97767.09
2023-01-12T00:57:57.095Z,97767.53
2023-01-12T01:00:29.679Z,97771.75
2023-01-12T01:03:02.321Z,97760.78
2023-01-12T01:05:34.950Z,97762.84
2023-01-12T01:08:07.568Z,97758.94
2023-01-12T01:10:40.076Z,97767.28
2023-01-12T01:13:12.724Z,97769.91
2023-01-12T01:15:45.377Z,97772.66
2023-01-12T01:18:17.916Z,97773.03
2023-01-12T01:20:50.417Z,97772.94
2023-01-12T01:23:25.225Z,97780.97
2023-01-12T01:26:02.569Z,97780.66
2023-01-12T01:28:36.013Z,97773.97
2023-01-12T01:31:13.465Z,97763.41
2023-01-12T01:33:47.556Z,97768.28
2023-01-12T01:36:20.907Z,97763.84
2023-01-12T01:38:53.550Z,97764.25
2023-01-12T01:41:31.634Z,97762.94
2023-01-12T01:44:25.095Z,97757.50
2023-01-12T01:47:08.127Z,97759.81
2023-01-12T01:49:49.041Z,97769.56
2023-01-12T01:52:28.771Z,97779.78
2023-01-12T01:55:06.715Z,97769.31
2023-01-12T01:57:50.209Z,97769.00
2023-01-12T02:00:24.869Z,97758.16
2023-01-12T02:03:01.573Z,97750.09
2023-01-12T02:05:37.170Z,97741.38
2023-01-12T02:08:35.048Z,97743.41
2023-01-12T02:11:08.255Z,97750.47
2023-01-12T02:13:40.881Z,97766.53
2023-01-12T02:16:20.329Z,97766.88
2023-01-12T02:19:14.400Z,97758.84
2023-01-12T02:22:11.662Z,97761.22
2023-01-12T02:24:47.065Z,97751.84
2023-01-12T02:27:30.472Z,97740.06
2023-01-12T02:30:24.897Z,97731.91
2023-01-12T02:33:07.522Z,97725.53
2023-01-12T02:35:42.588Z,97726.28
2023-01-12T02:38:36.011Z,97729.84
2023-01-12T02:41:26.691Z,97734.38
2023-01-12T02:43:59.918Z,97733.81
2023-01-12T02:46:33.726Z,97727.34
2023-01-12T02:49:18.448Z,97724.91
2023-01-12T02:51:58.035Z,97725.13
2023-01-12T02:54:34.279Z,97729.72
2023-01-12T02:57:10.470Z,97726.34
2023-01-12T02:59:45.145Z,97719.31
2023-01-12T03:02:24.710Z,97706.72
2023-01-12T03:04:57.321Z,97711.56
2023-01-12T03:07:45.175Z,97722.69
2023-01-12T03:10:42.359Z,97721.06
2023-01-12T03:13:16.582Z,97721.59
2023-01-12T03:15:54.047Z,97718.38
2023-01-12T03:18:29.239Z,97720.09
2023-01-12T03:21:18.026Z,97728.56
2023-01-12T03:23:58.878Z,97725.69
2023-01-12T03:26:36.313Z,97717.53
2023-01-12T03:29:29.261Z,97722.97
2023-01-12T03:32:02.942Z,97731.78
2023-01-12T03:34:37.630Z,97737.09
2023-01-12T03:37:44.450Z,97747.28
2023-01-12T03:40:44.352Z,97750.91
2023-01-12T03:43:38.653Z,97746.78
2023-01-12T03:46:32.797Z,97750.03
2023-01-12T03:49:26.898Z,97747.03
2023-01-12T03:52:03.551Z,97740.19
2023-01-12T03:54:40.564Z,97735.97
2023-01-12T03:57:14.722Z,97722.06
2023-01-12T03:59:47.386Z,97723.53
2023-01-12T04:02:20.046Z,97720.50
2023-01-12T04:04:52.688Z,97715.31
2023-01-12T04:07:25.302Z,97727.41
2023-01-12T04:09:57.922Z,97740.78
2023-01-12T04:12:30.502Z,97733.53
2023-01-12T04:15:03.323Z,97736.09
2023-01-12T04:17:35.936Z,97730.06
2023-01-12T04:20:09.355Z,97724.38
2023-01-12T04:22:41.969Z,97727.41
2023-01-12T04:25:18.366Z,97717.59
2023-01-12T04:27:56.014Z,97714.75
2023-01-12T04:30:31.216Z,97710.53
2023-01-12T04:33:08.167Z,97710.34
2023-01-12T04:35:40.847Z,97718.44
2023-01-12T04:38:13.410Z,97714.31
2023-01-12T04:40:46.026Z,97708.81
2023-01-12T04:43:18.682Z,97699.81
2023-01-12T04:45:51.375Z,97701.91
2023-01-12T04:48:25.237Z,97706.53
2023-01-12T04:51:00.469Z,97715.44
2023-01-12T04:53:33.180Z,97722.66
2023-01-12T04:56:07.150Z,97730.44
2023-01-12T04:58:39.853Z,97728.50
2023-01-12T05:01:18.488Z,97743.03
2023-01-12T05:03:51.215Z,97753.72
2023-01-12T05:06:24.348Z,97751.09
2023-01-12T05:08:57.015Z,97760.09
2023-01-12T05:11:30.203Z,97765.50
2023-01-12T05:14:02.840Z,97747.47
2023-01-12T05:16:35.500Z,97750.56
2023-01-12T05:19:09.130Z,97736.19
2023-01-12T05:21:41.672Z,97730.50
2023-01-12T05:24:14.273Z,97737.41
2023-01-12T05:26:46.923Z,97741.13
2023-01-12T05:29:19.490Z,97737.78
2023-01-12T05:31:52.343Z,97735.59
2023-01-12T05:34:24.940Z,97740.72
2023-01-12T05:36:57.591Z,97728.69
2023-01-12T05:39:30.204Z,97728.50
2023-01-12T05:42:02.803Z,97735.47
2023-01-12T05:44:35.439Z,97738.78
2023-01-12T05:47:08.036Z,97748.84
2023-01-12T05:49:40.624Z,97743.84
2023-01-12T05:52:13.221Z,97750.41
2023-01-12T05:54:45.823Z,97745.97
2023-01-12T05:57:18.506Z,97749.03
2023-01-12T05:59:51.125Z,97754.03
2023-01-12T06:02:23.831Z,97749.41
2023-01-12T06:04:56.533Z,97745.47
2023-01-12T06:07:29.183Z,97750.38
2023-01-12T06:10:01.856Z,97755.22
2023-01-12T06:12:34.436Z,97750.25
2023-01-12T06:15:07.526Z,97749.34
2023-01-12T06:17:40.202Z,97756.25
2023-01-12T06:20:13.588Z,97753.88
2023-01-12T06:22:46.216Z,97763.91
2023-01-12T06:25:19.094Z,97756.44
2023-01-12T06:27:51.703Z,97759.59
2023-01-12T06:30:24.777Z,97770.56
2023-01-12T06:33:01.876Z,97771.03
2023-01-12T06:35:34.513Z,97775.84
2023-01-12T06:38:07.123Z,97763.66
2023-01-12T06:40:39.675Z,97767.16
2023-01-12T06:43:12.301Z,97769.03
2023-01-12T06:45:45.691Z,97769.97
2023-01-12T06:48:18.555Z,97769.56
2023-01-12T06:50:52.801Z,97767.81
2023-01-12T06:53:25.415Z,97769.03
2023-01-12T06:55:58.000Z,97766.47
2023-01-12T06:58:30.693Z,97768.78
2023-01-12T07:01:04.621Z,97762.69
2023-01-12T07:03:37.268Z,97765.34
2023-01-12T07:06:09.868Z,97756.88
2023-01-12T07:08:42.526Z,97750.56
2023-01-12T07:11:15.190Z,97754.22
2023-01-12T07:13:47.796Z,97749.19
2023-01-12T07:16:20.458Z,97758.00
2023-01-12T07:18:53.103Z,97760.03
2023-01-12T07:21:25.688Z,97760.00
2023-01-12T07:23:58.251Z,97766.44
2023-01-12T07:26:30.832Z,97768.91
2023-01-12T07:29:03.941Z,97778.63
2023-01-12T07:31:36.745Z,97776.03
2023-01-12T07:34:09.366Z,97777.06
2023-01-12T07:36:42.088Z,97771.66
2023-01-12T07:39:14.685Z,97768.28
2023-01-12T07:41:47.317Z,97762.84
2023-01-12T07:44:20.080Z,97752.22
2023-01-12T07:46:52.692Z,97759.44
2023-01-12T07:49:26.302Z,97760.91
2023-01-12T07:51:59.091Z,97762.50
2023-01-12T07:54:31.709Z,97769.69
2023-01-12T07:57:07.012Z,97757.63
2023-01-12T07:59:39.704Z,97760.59
2023-01-12T08:02:14.176Z,97755.50
2023-01-12T08:04:47.415Z,97756.34
2023-01-12T08:07:20.145Z,97755.53
2023-01-12T08:09:52.871Z,97768.47
2023-01-12T08:12:25.693Z,97773.59
2023-01-12T08:14:58.375Z,97788.50
2023-01-12T08:17:40.326Z,97789.84
2023-01-12T08:20:26.717Z,97781.56
2023-01-12T08:23:08.037Z,97793.16
2023-01-12T08:25:46.088Z,97788.75
2023-01-12T08:28:34.147Z,97787.09
2023-01-12T08:31:07.948Z,97787.03
2023-01-12T08:33:44.588Z,97783.84
2023-01-12T08:36:18.033Z,97764.13
2023-01-12T08:38:50.819Z,97771.72
2023-01-12T08:41:24.456Z,97766.34
2023-01-12T08:43:57.220Z,97762.19
2023-01-12T08:46:29.757Z,97755.69
2023-01-12T08:49:07.340Z,97746.06
2023-01-12T08:51:41.967Z,97758.53
2023-01-12T08:54:17.228Z,97782.78
2023-01-12T08:56:50.511Z,97780.38
2023-01-12T08:59:26.179Z,97792.28
2023-01-12T09:01:59.024Z,97779.31
2023-01-12T09:04:31.979Z,97778.03
2023-01-12T09:07:04.684Z,97769.34
2023-01-12T09:09:37.979Z,97764.94
2023-01-12T09:12:10.604Z,97761.22
2023-01-12T09:14:43.220Z,97763.66
2023-01-12T09:17:15.829Z,97763.44
2023-01-12T09:19:48.668Z,97772.00
2023-01-12T09:22:21.289Z,97780.75
2023-01-12T09:24:53.872Z,97777.81
2023-01-12T09:27:26.482Z,97777.50
2023-01-12T09:29:59.141Z,97786.22
2023-01-12T09:32:36.902Z,97795.00
2023-01-12T09:35:09.908Z,97788.88
2023-01-12T09:37:42.501Z,97790.00
2023-01-12T09:40:16.170Z,97785.53
2023-01-12T09:42:52.665Z,97786.09
2023-01-12T09:45:25.474Z,97785.38
2023-01-12T09:47:59.435Z,97794.78
2023-01-12T09:50:38.460Z,97789.31
2023-01-12T09:53:17.207Z,97782.31
2023-01-12T09:56:13.542Z,97780.75
2023-01-12T09:59:02.797Z,97772.22
2023-01-12T10:01:37.397Z,97771.38
2023-01-12T10:04:10.203Z,97755.72
2023-01-12T10:06:42.843Z,97754.91
2023-01-12T10:09:19.875Z,97750.91
2023-01-12T10:12:03.292Z,97756.22
2023-01-12T10:14:49.707Z,97751.72
2023-01-12T10:17:25.097Z,97742.09
2023-01-12T10:20:02.320Z,97728.53
2023-01-12T10:22:44.253Z,97722.75
2023-01-12T10:25:29.550Z,97728.41
2023-01-12T10:28:21.530Z,97736.59
2023-01-12T10:30:56.342Z,97738.53
2023-01-12T10:33:34.250Z,97735.88
2023-01-12T10:36:17.693Z,97723.75
2023-01-12T10:39:02.542Z,97722.78
2023-01-12T10:41:36.523Z,97720.38
2023-01-12T10:44:17.323Z,97716.03
2023-01-12T10:47:09.590Z,97722.31
2023-01-12T10:49:42.214Z,97705.13
2023-01-12T10:52:37.775Z,97711.03
2023-01-12T10:55:19.637Z,97709.97
2023-01-12T10:57:52.837Z,97714.22
2023-01-12T11:00:28.268Z,97716.25
2023-01-12T11:03:00.951Z,97702.66
2023-01-12T11:05:36.642Z,97702.00
2023-01-12T11:08:38.464Z,97711.94
2023-01-12T11:11:37.127Z,97718.00
2023-01-12T11:14:25.563Z,97724.81
2023-01-12T11:17:24.679Z,97724.75
2023-01-12T11:20:01.529Z,97714.41
2023-01-12T11:22:37.558Z,97710.25
2023-01-12T11:25:22.467Z,97716.03
2023-01-12T11:28:10.428Z,97701.31
2023-01-12T11:31:24.494Z,97702.50
2023-01-12T11:34:24.569Z,97693.97
2023-01-12T11:37:11.006Z,97694.38
2023-01-12T11:39:49.837Z,97710.81
2023-01-12T11:42:28.109Z,97689.03
2023-01-12T11:45:12.511Z,97682.78
2023-01-12T11:48:07.215Z,97677.09
2023-01-12T11:50:40.712Z,97677.44
2023-01-12T11:53:22.306Z,97670.53
2023-01-12T11:56:43.433Z,97668.41
2023-01-12T11:59:29.837Z,97666.50
2023-01-12T12:02:27.169Z,97660.28
2023-01-12T12:05:18.137Z,97654.59
2023-01-12T12:08:15.958Z,97649.88
2023-01-12T12:11:03.540Z,97633.38
2023-01-12T12:13:59.794Z,97636.53
2023-01-12T12:17:14.341Z,97640.34
2023-01-12T12:20:28.094Z,97631.41
2023-01-12T12:23:18.678Z,97636.28
2023-01-12T12:26:00.485Z,97628.88
2023-01-12T12:28:33.294Z,97625.06
2023-01-12T12:31:27.579Z,97615.25
2023-01-12T12:34:11.840Z,97612.97
2023-01-12T12:36:59.556Z,97599.28
2023-01-12T12:39:55.981Z,97579.59
2023-01-12T12:42:51.724Z,97584.25
2023-01-12T12:45:51.721Z,97578.00
2023-01-12T12:48:58.639Z,97575.63
2023-01-12T12:51:34.608Z,97577.28
2023-01-12T12:54:16.534Z,97581.34
2023-01-12T12:56:50.508Z,97562.88
2023-01-12T12:59:31.978Z,97562.78
2023-01-12T13:02:04.798Z,97559.59
2023-01-12T13:04:43.612Z,97549.28
2023-01-12T13:07:21.236Z,97549.97
2023-01-12T13:10:15.523Z,97545.03
2023-01-12T13:13:01.264Z,97554.97
2023-01-12T13:15:34.740Z,97552.59
2023-01-12T13:19:02.522Z,97563.03
2023-01-12T13:21:56.257Z,97549.69
2023-01-12T13:24:40.431Z,97555.91
2023-01-12T13:27:58.294Z,97559.31
2023-01-12T13:30:30.900Z,97564.03
2023-01-12T13:33:15.340Z,97550.03
2023-01-12T13:35:47.978Z,97533.22
2023-01-12T13:38:36.573Z,97523.94
2023-01-12T13:41:15.059Z,97529.75
2023-01-12T13:43:47.671Z,97522.38
2023-01-12T13:46:46.547Z,97521.72
2023-01-12T13:49:27.223Z,97517.34
2023-01-12T13:52:20.528Z,97502.94
2023-01-12T13:54:53.288Z,97500.66
2023-01-12T13:57:30.109Z,97496.41
2023-01-12T14:00:07.334Z,97495.97
2023-01-12T14:02:45.260Z,97486.31
2023-01-12T14:05:42.745Z,97481.53
2023-01-12T14:08:50.713Z,97480.50
2023-01-12T14:12:04.042Z,97487.38
2023-01-12T14:15:18.246Z,97498.84
2023-01-12T14:17:51.138Z,97486.63
2023-01-12T14:20:27.061Z,97483.78
2023-01-12T14:23:17.661Z,97490.63
2023-01-12T14:26:07.390Z,97492.44
2023-01-12T14:28:42.137Z,97491.56
2023-01-12T14:31:39.124Z,97493.50
2023-01-12T14:34:29.853Z,97496.34
2023-01-12T14:37:06.488Z,97496.81
2023-01-12T14:39:39.119Z,97502.41
2023-01-12T14:42:20.037Z,97504.84
2023-01-12T14:44:57.533Z,97495.53
2023-01-12T14:47:34.629Z,97483.03
2023-01-12T14:50:16.018Z,97476.63
2023-01-12T14:52:49.049Z,97480.38
2023-01-12T14:55:24.430Z,97489.91
2023-01-12T14:58:01.776Z,97488.56
2023-01-12T15:00:36.594Z,97477.59
2023-01-12T15:03:26.336Z,97475.03
2023-01-12T15:06:01.638Z,97458.25
2023-01-12T15:08:34.323Z,97456.88
2023-01-12T15:11:09.405Z,97452.38
2023-01-12T15:13:42.061Z,97450.25
2023-01-12T15:16:14.710Z,97461.44
2023-01-12T15:18:47.557Z,97461.69
2023-01-12T15:21:20.568Z,97465.69
2023-01-12T15:23:53.213Z,97462.22
2023-01-12T15:26:25.875Z,97460.34
2023-01-12T15:28:58.494Z,97458.75
2023-01-12T15:31:38.686Z,97454.25
2023-01-12T15:34:12.068Z,97444.38
2023-01-12T15:36:44.727Z,97447.59
2023-01-12T15:39:17.404Z,97447.31
2023-01-12T15:41:50.500Z,97449.97
2023-01-12T15:44:23.170Z,97463.03
2023-01-12T15:46:55.843Z,97447.75
2023-01-12T15:49:28.455Z,97434.78
2023-01-12T15:52:01.061Z,97430.78
2023-01-12T15:54:33.700Z,97441.38
2023-01-12T15:57:08.244Z,97434.97
2023-01-12T15:59:41.287Z,97435.72
2023-01-12T16:02:36.818Z,97437.66
2023-01-12T16:05:11.256Z,97440.06
2023-01-12T16:07:43.850Z,97450.25
2023-01-12T16:10:17.725Z,97444.69
2023-01-12T16:12:50.432Z,97436.97
2023-01-12T16:15:25.148Z,97454.03
2023-01-12T16:17:57.771Z,97449.50
2023-01-12T16:20:30.409Z,97442.38
2023-01-12T16:23:02.989Z,97448.75
2023-01-12T16:25:36.951Z,97447.34
2023-01-12T16:28:10.889Z,97432.56
2023-01-12T16:30:47.173Z,97433.84
2023-01-12T16:33:19.752Z,97425.06
2023-01-12T16:35:55.248Z,97427.50
2023-01-12T16:38:28.378Z,97415.53
2023-01-12T16:41:13.278Z,97410.72
2023-01-12T16:43:46.416Z,97427.47
2023-01-12T16:46:18.997Z,97419.75
2023-01-12T16:48:51.644Z,97400.56
2023-01-12T16:51:24.263Z,97411.50
2023-01-12T16:53:56.903Z,97425.66
2023-01-12T16:56:29.529Z,97423.47
2023-01-12T16:59:02.124Z,97413.94
2023-01-12T17:01:35.121Z,97420.28
2023-01-12T17:04:07.799Z,97404.59
2023-01-12T17:06:40.780Z,97400.63
2023-01-12T17:09:14.819Z,97385.25
2023-01-12T17:11:50.034Z,97379.66
2023-01-12T17:14:22.787Z,97383.66
2023-01-12T17:16:58.007Z,97390.31
2023-01-12T17:19:33.879Z,97399.13
2023-01-12T17:22:07.659Z,97388.16
2023-01-12T17:24:40.826Z,97376.72
2023-01-12T17:27:13.521Z,97372.69
2023-01-12T17:29:50.149Z,97359.69
2023-01-12T17:32:22.944Z,97363.41
2023-01-12T17:34:55.786Z,97373.47
2023-01-12T17:37:28.368Z,97362.34
2023-01-12T17:40:00.975Z,97361.28
2023-01-12T17:42:33.598Z,97360.22
2023-01-12T17:45:06.856Z,97352.19
2023-01-12T17:47:39.450Z,97350.09
2023-01-12T17:50:12.074Z,97353.56
2023-01-12T17:52:44.696Z,97346.56
2023-01-12T17:55:17.536Z,97339.44
2023-01-12T17:57:50.169Z,97351.13
2023-01-12T18:00:23.189Z,97344.19
2023-01-12T18:02:55.826Z,97349.81
2023-01-12T18:05:29.739Z,97354.88
2023-01-12T18:08:02.386Z,97351.88
2023-01-12T18:10:34.969Z,97347.94
2023-01-12T18:13:07.699Z,97353.72
2023-01-12T18:15:40.632Z,97343.69
2023-01-12T18:18:13.266Z,97339.16
2023-01-12T18:20:45.871Z,97332.44
2023-01-12T18:23:18.645Z,97322.91
2023-01-12T18:25:51.238Z,97334.63
2023-01-12T18:28:23.831Z,97334.91
2023-01-12T18:31:11.032Z,97334.66
2023-01-12T18:33:44.533Z,97334.66
2023-01-12T18:36:19.863Z,97325.34
2023-01-12T18:38:53.689Z,97318.16
2023-01-12T18:41:26.406Z,97317.59
2023-01-12T18:43:59.455Z,97317.34
2023-01-12T18:46:33.858Z,97315.72
2023-01-12T18:49:06.442Z,97313.34
2023-01-12T18:51:39.064Z,97304.59
2023-01-12T18:54:11.721Z,97312.28
2023-01-12T18:56:44.311Z,97321.31
2023-01-12T18:59:17.268Z,97293.66
2023-01-12T19:01:50.064Z,97283.03
2023-01-12T19:04:22.773Z,97278.25
2023-01-12T19:06:55.407Z,97281.69
2023-01-12T19:09:28.069Z,97292.84
2023-01-12T19:12:01.666Z,97292.56
2023-01-12T19:14:34.561Z,97283.81
2023-01-12T19:17:07.176Z,97285.41
2023-01-12T19:19:42.255Z,97279.53
2023-01-12T19:22:14.933Z,97280.88
2023-01-12T19:24:47.557Z,97265.97
2023-01-12T19:27:20.253Z,97254.03
2023-01-12T19:29:54.859Z,97256.03
2023-01-12T19:32:27.628Z,97271.78
2023-01-12T19:35:10.206Z,97270.22
2023-01-12T19:37:47.959Z,97266.25
2023-01-12T19:40:20.597Z,97272.63
2023-01-12T19:42:53.221Z,97274.44
2023-01-12T19:45:25.963Z,97282.72
2023-01-12T19:47:58.561Z,97287.00
2023-01-12T19:50:31.263Z,97287.50
2023-01-12T19:53:06.230Z,97291.94
2023-01-12T19:55:41.918Z,97290.91
2023-01-12T19:58:14.621Z,97290.38
2023-01-12T20:00:48.507Z,97288.25
2023-01-12T20:03:23.906Z,97291.41
2023-01-12T20:05:56.506Z,97300.00
2023-01-12T20:08:29.127Z,97302.31
2023-01-12T20:11:05.167Z,97311.59
2023-01-12T20:13:38.250Z,97286.59
2023-01-12T20:16:10.977Z,97290.84
2023-01-12T20:18:43.705Z,97296.19
2023-01-12T20:21:16.425Z,97292.28
2023-01-12T20:23:49.059Z,97289.09
2023-01-12T20:26:21.702Z,97288.03
2023-01-12T20:28:54.394Z,97279.50
2023-01-12T20:31:27.625Z,97281.38
2023-01-12T20:34:00.278Z,97276.03
2023-01-12T20:36:33.428Z,97271.28
2023-01-12T20:39:07.313Z,97267.84
2023-01-12T20:41:41.621Z,97264.63
2023-01-12T20:44:17.092Z,97268.63
2023-01-12T20:46:49.837Z,97282.72
2023-01-12T20:49:22.639Z,97281.94
2023-01-12T20:51:58.653Z,97266.22
2023-01-12T20:54:31.267Z,97257.47
2023-01-12T20:57:03.963Z,97263.31
2023-01-12T20:59:37.526Z,97246.78
2023-01-12T21:02:21.183Z,97229.78
2023-01-12T21:04:53.913Z,97241.72
2023-01-12T21:07:26.509Z,97259.28
2023-01-12T21:09:59.383Z,97264.41
2023-01-12T21:12:32.040Z,97273.69
2023-01-12T21:15:05.207Z,97264.06
2023-01-12T21:17:37.857Z,97261.69
2023-01-12T21:20:11.352Z,97262.25
2023-01-12T21:22:43.976Z,97273.41
2023-01-12T21:25:16.774Z,97271.31
2023-01-12T21:27:49.396Z,97283.81
2023-01-12T21:30:22.281Z,97282.97
2023-01-12T21:32:54.890Z,97275.53
2023-01-12T21:35:27.488Z,97285.38
2023-01-12T21:38:00.274Z,97267.53
2023-01-12T21:40:33.021Z,97273.94
2023-01-12T21:43:05.604Z,97254.50
2023-01-12T21:45:42.268Z,97253.69
2023-01-12T21:48:17.488Z,97265.13
2023-01-12T21:50:50.259Z,97261.69
2023-01-12T21:53:22.836Z,97273.41
2023-01-12T21:55:58.308Z,97279.78
2023-01-12T21:58:34.241Z,97265.94
2023-01-12T22:01:12.040Z,97281.34
2023-01-12T22:03:44.827Z,97292.50
2023-01-12T22:06:17.431Z,97280.84
2023-01-12T22:08:50.034Z,97278.44
2023-01-12T22:11:22.731Z,97272.31
2023-01-12T22:13:55.348Z,97264.56
2023-01-12T22:16:27.959Z,97259.00
2023-01-12T22:19:00.707Z,97251.53
2023-01-12T22:21:33.368Z,97250.47
2023-01-12T22:24:06.677Z,97245.72
2023-01-12T22:26:39.305Z,97247.53
2023-01-12T22:29:11.903Z,97259.53
2023-01-12T22:31:44.591Z,97259.50
2023-01-12T22:34:17.229Z,97278.19
2023-01-12T22:36:49.897Z,97290.91
2023-01-12T22:39:22.492Z,97298.25
2023-01-12T22:41:55.120Z,97301.47
2023-01-12T22:44:27.742Z,97287.09
2023-01-12T22:47:00.326Z,97282.03
2023-01-12T22:49:32.930Z,97275.19
2023-01-12T22:52:05.980Z,97264.00
2023-01-12T22:54:38.534Z,97252.63
2023-01-12T22:57:11.098Z,97245.72
2023-01-12T22:59:43.701Z,97246.53
2023-01-12T23:02:16.414Z,97254.22
2023-01-12T23:04:49.074Z,97247.03
2023-01-12T23:07:21.952Z,97238.22
2023-01-12T23:09:54.578Z,97228.44
2023-01-12T23:12:27.210Z,97224.94
2023-01-12T23:14:59.823Z,97217.28
2023-01-12T23:17:32.736Z,97225.00
2023-01-12T23:20:06.005Z,97240.16
2023-01-12T23:22:38.606Z,97247.59
2023-01-12T23:25:11.237Z,97253.72
2023-01-12T23:27:43.916Z,97253.19
2023-01-12T23:30:16.723Z,97252.91
2023-01-12T23:32:49.360Z,97235.66
2023-01-12T23:35:22.127Z,97235.38
2023-01-12T23:37:54.869Z,97230.88
2023-01-12T23:40:27.805Z,97227.16
2023-01-12T23:43:02.765Z,97242.84
2023-01-12T23:45:35.413Z,97236.19
2023-01-12T23:48:08.203Z,97248.13
2023-01-12T23:50:40.820Z,97248.13
2023-01-12T23:53:13.441Z,97248.38
2023-01-12T23:55:46.054Z,97244.69
2023-01-12T23:58:18.782Z,97234.84
